Time;durP1;ratioP1;P1;durP2;ratioP2;P2;SDS_P1;SDS_P2;PMS_P1;PMS_P2;Temp;Humidity;BMP_temperature;BMP_pressure;BME280_temperature;BME280_humidity;BME280_pressure;Samples;Min_cycle;Max_cycle;Signal;HPM_P1;HPM_P2
2022/02/04 00:20:32;;;;;;;59.47;33.28;;;;;;;;;;4969927;28;20142;-80
2022/02/04 00:23:15;;;;;;;56.63;31.65;;;;;;;;;;4952822;29;20090;-80
2022/02/04 00:26:01;;;;;;;56.95;36.03;;;;;;;;;;4966935;28;20035;-80
2022/02/04 00:33:40;;;;;;;55.58;35.90;;;;;;;;;;4972201;28;20058;-80
2022/02/04 00:36:14;;;;;;;56.25;33.22;;;;;;;;;;4986835;28;20057;-79
2022/02/04 00:38:44;;;;;;;50.45;29.95;;;;;;;;;;4971852;28;20074;-80
2022/02/04 00:41:12;;;;;;;60.03;31.40;;;;;;;;;;4970684;28;20138;-79
2022/02/04 00:43:39;;;;;;;51.55;29.52;;;;;;;;;;4964342;28;20034;-79
2022/02/04 00:46:21;;;;;;;48.75;28.55;;;;;;;;;;4953544;28;20366;-80
2022/02/04 00:49:09;;;;;;;47.17;27.40;;;;;;;;;;4977918;28;20093;-80
2022/02/04 01:26:57;;;;;;;37.13;20.42;;;;;;;;;;5086377;28;20082;-79
2022/02/04 01:29:26;;;;;;;38.00;22.75;;;;;;;;;;5086004;28;20039;-78
2022/02/04 01:31:52;;;;;;;35.35;21.15;;;;;;;;;;5086460;28;20119;-79
2022/02/04 01:34:19;;;;;;;42.10;25.48;;;;;;;;;;5092308;28;20078;-78
2022/02/04 01:36:45;;;;;;;35.97;19.52;;;;;;;;;;5072850;28;20038;-78
2022/02/04 01:39:11;;;;;;;32.75;19.02;;;;;;;;;;5088489;28;20073;-78
2022/02/04 01:41:37;;;;;;;29.45;17.17;;;;;;;;;;5090469;28;20404;-79
2022/02/04 01:44:19;;;;;;;27.02;15.52;;;;;;;;;;5077897;28;20827;-79
2022/02/04 01:46:45;;;;;;;;;;;;;;;;;;5095546;28;20481;-79
2022/02/04 01:49:11;;;;;;;23.92;13.07;;;;;;;;;;5092485;28;19950;-79
2022/02/04 01:51:37;;;;;;;22.17;12.80;;;;;;;;;;5101708;28;20036;-78
2022/02/04 01:54:03;;;;;;;22.35;13.10;;;;;;;;;;5087352;28;20033;-78
2022/02/04 01:56:29;;;;;;;23.35;13.60;;;;;;;;;;5090689;28;20097;-78
2022/02/04 01:58:55;;;;;;;24.42;13.30;;;;;;;;;;5103454;28;20115;-79
2022/02/04 02:01:21;;;;;;;20.30;11.07;;;;;;;;;;5088935;28;20040;-78
2022/02/04 02:03:47;;;;;;;22.65;12.23;;;;;;;;;;5097652;28;20031;-79
2022/02/04 02:06:13;;;;;;;29.92;16.27;;;;;;;;;;5086863;28;20040;-79
2022/02/04 02:08:43;;;;;;;19.50;10.98;;;;;;;;;;5078204;28;20035;-79
2022/02/04 02:11:10;;;;;;;22.10;12.07;;;;;;;;;;5056747;28;20076;-79
2022/02/04 02:13:48;;;;;;;19.85;11.73;;;;;;;;;;5073651;28;20533;-78
2022/02/04 02:59:07;;;;;;;17.30;9.15;;;;;;;;;;5089267;28;20155;-78
2022/02/04 03:01:33;;;;;;;15.70;9.65;;;;;;;;;;5071224;28;20055;-78
2022/02/04 03:04:04;;;;;;;15.65;9.00;;;;;;;;;;5074815;28;20035;-78
2022/02/04 03:06:31;;;;;;;18.77;9.38;;;;;;;;;;5078110;28;20032;-78
2022/02/04 03:08:57;;;;;;;18.80;9.35;;;;;;;;;;5063979;28;20467;-79
2022/02/04 03:11:23;;;;;;;19.30;10.77;;;;;;;;;;5082756;28;20031;-78
2022/02/04 03:13:49;;;;;;;16.90;10.20;;;;;;;;;;5091014;28;20484;-78
2022/02/04 03:16:18;;;;;;;24.08;10.30;;;;;;;;;;5082390;28;20036;-78
2022/02/04 03:18:48;;;;;;;19.30;9.75;;;;;;;;;;5084176;28;20016;-79
2022/02/04 03:21:17;;;;;;;19.10;10.57;;;;;;;;;;5068478;28;20036;-78
2022/02/04 03:23:48;;;;;;;21.52;12.35;;;;;;;;;;5071140;28;20537;-79
2022/02/04 03:26:27;;;;;;;22.33;12.52;;;;;;;;;;5080212;28;20032;-78
2022/02/04 03:28:53;;;;;;;21.45;12.45;;;;;;;;;;5090919;28;20106;-79
2022/02/04 03:31:19;;;;;;;19.85;11.05;;;;;;;;;;5072662;28;20044;-78
2022/02/04 03:33:46;;;;;;;21.90;12.57;;;;;;;;;;5058672;28;20035;-78
2022/02/04 03:36:13;;;;;;;22.10;13.88;;;;;;;;;;5074488;28;20042;-78
2022/02/04 03:38:39;;;;;;;23.65;13.75;;;;;;;;;;5090971;28;20465;-79
2022/02/04 03:41:07;;;;;;;19.83;11.35;;;;;;;;;;5082478;28;20051;-78
2022/02/04 03:43:33;;;;;;;24.27;13.32;;;;;;;;;;5067422;28;20089;-79
2022/02/04 03:45:59;;;;;;;23.83;13.65;;;;;;;;;;5072583;28;20036;-79
2022/02/04 03:48:25;;;;;;;22.55;13.30;;;;;;;;;;5058802;28;20179;-79
2022/02/04 03:50:51;;;;;;;24.27;15.25;;;;;;;;;;5076210;28;20851;-78
2022/02/04 03:53:17;;;;;;;30.42;17.23;;;;;;;;;;5070718;28;20063;-78
2022/02/04 03:55:44;;;;;;;29.15;17.05;;;;;;;;;;5068238;28;20060;-78
2022/02/04 03:58:10;;;;;;;24.33;14.90;;;;;;;;;;5051927;28;20028;-78
2022/02/04 04:00:37;;;;;;;30.95;18.08;;;;;;;;;;5060083;28;20037;-79
2022/02/04 04:03:03;;;;;;;24.95;14.52;;;;;;;;;;5060957;28;20764;-79
2022/02/04 04:05:29;;;;;;;29.90;17.48;;;;;;;;;;5070573;28;20249;-79
2022/02/04 04:07:56;;;;;;;29.75;15.55;;;;;;;;;;5070224;28;20040;-79
2022/02/04 04:10:25;;;;;;;24.58;13.98;;;;;;;;;;5070897;28;20391;-79
2022/02/04 04:12:53;;;;;;;29.40;15.80;;;;;;;;;;5082367;28;20028;-79
2022/02/04 04:15:19;;;;;;;24.90;14.27;;;;;;;;;;5080414;28;20130;-79
2022/02/04 04:17:46;;;;;;;22.05;11.82;;;;;;;;;;5083223;28;20028;-79
2022/02/04 04:20:13;;;;;;;20.08;10.63;;;;;;;;;;5064685;28;20044;-78
2022/02/04 04:22:40;;;;;;;21.58;11.85;;;;;;;;;;5082531;28;20016;-79
2022/02/04 04:25:06;;;;;;;21.08;11.63;;;;;;;;;;5090310;28;20054;-79
2022/02/04 04:27:32;;;;;;;16.42;10.10;;;;;;;;;;5071520;28;20035;-79
2022/02/04 04:29:58;;;;;;;20.25;9.90;;;;;;;;;;5067542;28;20810;-79
2022/02/04 04:32:24;;;;;;;18.63;9.55;;;;;;;;;;5085897;28;20040;-79
2022/02/04 04:34:51;;;;;;;20.20;9.82;;;;;;;;;;5067735;28;20040;-79
2022/02/04 04:37:17;;;;;;;19.05;9.43;;;;;;;;;;5084783;28;20024;-79
2022/02/04 04:39:59;;;;;;;21.70;12.68;;;;;;;;;;5088093;28;20032;-79
2022/02/04 05:26:39;;;;;;;20.85;10.95;;;;;;;;;;5073424;28;20086;-78
2022/02/04 05:29:11;;;;;;;19.90;11.68;;;;;;;;;;5071487;28;20479;-79
2022/02/04 05:31:37;;;;;;;19.27;11.40;;;;;;;;;;5086987;28;20032;-78
2022/02/04 05:34:04;;;;;;;21.30;10.55;;;;;;;;;;5081202;28;20472;-78
2022/02/04 05:36:33;;;;;;;23.25;12.48;;;;;;;;;;5082459;28;20036;-79
2022/02/04 05:38:59;;;;;;;16.65;9.40;;;;;;;;;;5062814;28;20032;-78
2022/02/04 05:41:30;;;;;;;27.50;15.30;;;;;;;;;;5070865;28;20024;-78
2022/02/04 05:43:59;;;;;;;27.80;18.00;;;;;;;;;;5092894;28;20043;-78
2022/02/04 05:46:32;;;;;;;29.98;18.95;;;;;;;;;;5080837;28;20033;-79
2022/02/04 05:49:00;;;;;;;15.75;8.55;;;;;;;;;;5087433;28;20028;-78
2022/02/04 05:51:35;;;;;;;16.55;11.40;;;;;;;;;;5073103;28;20033;-78
2022/02/04 05:54:21;;;;;;;23.80;13.75;;;;;;;;;;5090109;28;20028;-78
2022/02/04 05:57:00;;;;;;;14.63;8.35;;;;;;;;;;5082475;28;20056;-78
2022/02/04 06:02:05;;;;;;;14.05;8.00;;;;;;;;;;5092568;28;20024;-78
2022/02/04 06:04:43;;;;;;;13.40;6.72;;;;;;;;;;5092707;28;20046;-78
2022/02/04 06:10:26;;;;;;;11.68;6.53;;;;;;;;;;5072684;28;20066;-78
2022/02/04 06:23:29;;;;;;;19.13;9.57;;;;;;;;;;5087111;28;20070;-78
2022/02/04 06:25:55;;;;;;;15.20;8.30;;;;;;;;;;5082792;28;20036;-78
2022/02/04 06:28:21;;;;;;;19.27;9.25;;;;;;;;;;5059418;28;20751;-78
2022/02/04 06:30:47;;;;;;;18.65;10.00;;;;;;;;;;5081976;28;20036;-79
2022/02/04 06:33:13;;;;;;;18.75;9.38;;;;;;;;;;5081345;28;20020;-80
2022/02/04 06:35:43;;;;;;;17.83;10.00;;;;;;;;;;5069108;28;20119;-80
2022/02/04 06:38:09;;;;;;;20.77;11.07;;;;;;;;;;5083082;28;20549;-79
2022/02/04 06:40:35;;;;;;;17.45;9.85;;;;;;;;;;5085716;28;20040;-80
2022/02/04 06:43:01;;;;;;;17.38;10.25;;;;;;;;;;5084127;28;20027;-80
2022/02/04 06:45:27;;;;;;;24.20;12.07;;;;;;;;;;5072512;28;20079;-80
2022/02/04 06:47:53;;;;;;;17.67;8.65;;;;;;;;;;5070411;28;20050;-80
2022/02/04 06:50:20;;;;;;;17.92;9.90;;;;;;;;;;5073462;28;20036;-80
2022/02/04 06:52:46;;;;;;;16.75;9.27;;;;;;;;;;5072610;28;20020;-80
2022/02/04 06:55:12;;;;;;;20.30;9.82;;;;;;;;;;5081983;28;20098;-79
2022/02/04 06:57:42;;;;;;;17.60;11.13;;;;;;;;;;5073369;28;20070;-79
2022/02/04 07:00:09;;;;;;;17.63;10.05;;;;;;;;;;5079727;28;20032;-79
2022/02/04 07:02:35;;;;;;;20.25;12.43;;;;;;;;;;5079522;28;20031;-80
2022/02/04 07:05:08;;;;;;;20.95;11.10;;;;;;;;;;5064306;28;20075;-79
2022/02/04 07:07:35;;;;;;;19.08;10.02;;;;;;;;;;5064892;28;20039;-80
2022/02/04 07:10:10;;;;;;;18.10;9.10;;;;;;;;;;5086881;28;20031;-80
2022/02/04 07:12:40;;;;;;;17.90;9.73;;;;;;;;;;5087760;28;20024;-80
2022/02/04 07:17:57;;;;;;;17.67;9.55;;;;;;;;;;5086924;28;20031;-80
2022/02/04 07:20:23;;;;;;;24.63;12.93;;;;;;;;;;5084638;28;20028;-80
2022/02/04 07:22:49;;;;;;;42.67;21.63;;;;;;;;;;5102888;27;20139;-79
2022/02/04 07:25:15;;;;;;;29.33;16.70;;;;;;;;;;5092131;28;20038;-80
2022/02/04 07:27:43;;;;;;;19.83;11.80;;;;;;;;;;5098926;28;20495;-79
2022/02/04 07:30:10;;;;;;;17.52;9.35;;;;;;;;;;5082435;28;20051;-80
2022/02/04 07:32:57;;;;;;;18.55;10.40;;;;;;;;;;5082706;28;20036;-80
2022/02/04 07:41:01;;;;;;;20.48;11.60;;;;;;;;;;5105862;28;20063;-80
2022/02/04 07:43:27;;;;;;;18.15;11.05;;;;;;;;;;5094430;28;20032;-80
2022/02/04 07:45:54;;;;;;;19.40;10.20;;;;;;;;;;5083342;28;20044;-80
2022/02/04 07:48:20;;;;;;;19.35;10.65;;;;;;;;;;5083910;28;20096;-80
2022/02/04 07:50:48;;;;;;;20.00;9.63;;;;;;;;;;5106187;28;20035;-80
2022/02/04 07:53:14;;;;;;;22.75;13.10;;;;;;;;;;5096415;28;20380;-80
2022/02/04 07:55:40;;;;;;;25.88;16.20;;;;;;;;;;5106695;28;20048;-80
2022/02/04 07:58:10;;;;;;;28.02;17.45;;;;;;;;;;5083937;28;20025;-80
2022/02/04 08:00:38;;;;;;;38.00;20.88;;;;;;;;;;5090643;28;20032;-80
2022/02/04 08:03:14;;;;;;;36.80;20.63;;;;;;;;;;5086940;28;20027;-80
2022/02/04 08:05:41;;;;;;;38.95;21.60;;;;;;;;;;5083202;28;20118;-80
2022/02/04 08:08:21;;;;;;;47.65;23.67;;;;;;;;;;5106132;28;20052;-80
2022/02/04 08:11:09;;;;;;;42.33;23.95;;;;;;;;;;5098189;28;20050;-80
2022/02/04 08:59:27;;;;;;;22.65;12.50;;;;;;;;;;5080245;28;20039;-79
2022/02/04 09:02:01;;;;;;;19.50;12.35;;;;;;;;;;5101063;28;20707;-80
2022/02/04 09:04:35;;;;;;;23.92;13.13;;;;;;;;;;5104984;28;20058;-80
2022/02/04 09:07:05;;;;;;;23.40;11.75;;;;;;;;;;5085807;28;20216;-80
2022/02/04 09:12:22;;;;;;;28.42;15.95;;;;;;;;;;5100500;28;20137;-80
2022/02/04 09:20:24;;;;;;;31.67;15.93;;;;;;;;;;5093598;28;20044;-80
2022/02/04 09:22:51;;;;;;;28.50;14.68;;;;;;;;;;5083280;28;20032;-80
2022/02/04 09:25:17;;;;;;;26.42;13.63;;;;;;;;;;5093658;28;20047;-80
2022/02/04 09:27:44;;;;;;;24.83;14.25;;;;;;;;;;5091881;28;20046;-80
2022/02/04 09:30:12;;;;;;;25.95;17.15;;;;;;;;;;5089713;28;20484;-80
2022/02/04 09:32:39;;;;;;;33.95;20.92;;;;;;;;;;5078404;28;20066;-80
2022/02/04 09:35:06;;;;;;;41.72;24.83;;;;;;;;;;5106014;28;20032;-80
2022/02/04 09:37:32;;;;;;;35.45;22.98;;;;;;;;;;5098590;28;20027;-78
2022/02/04 09:39:58;;;;;;;35.58;23.60;;;;;;;;;;5104200;28;20028;-81
2022/02/04 09:42:25;;;;;;;35.95;20.30;;;;;;;;;;5108708;28;20110;-80
2022/02/04 09:44:51;;;;;;;38.00;23.33;;;;;;;;;;5098629;28;20096;-77
2022/02/04 09:47:22;;;;;;;45.55;27.02;;;;;;;;;;5090746;28;20066;-78
2022/02/04 09:49:54;;;;;;;37.25;22.63;;;;;;;;;;5110320;28;20032;-78
2022/02/04 10:19:49;;;;;;;15.52;6.20;;;;;;;;;;5110327;28;20178;-80
2022/02/04 10:22:20;;;;;;;12.52;6.00;;;;;;;;;;5106714;28;20532;-80
2022/02/04 10:24:54;;;;;;;11.68;5.45;;;;;;;;;;5084424;28;20040;-79
2022/02/04 10:27:21;;;;;;;11.18;5.10;;;;;;;;;;5109567;28;20103;-79
2022/02/04 10:29:53;;;;;;;12.68;5.72;;;;;;;;;;5109771;27;20071;-80
2022/02/04 10:32:23;;;;;;;13.00;5.10;;;;;;;;;;5101866;28;20036;-79
2022/02/04 10:35:09;;;;;;;12.18;5.10;;;;;;;;;;5097611;28;20306;-80
2022/02/04 10:37:38;;;;;;;11.52;4.95;;;;;;;;;;5075313;28;20035;-80
2022/02/04 10:40:23;;;;;;;12.15;5.75;;;;;;;;;;5105396;28;20031;-79
2022/02/04 10:45:37;;;;;;;12.65;6.72;;;;;;;;;;5111409;28;20044;-79
2022/02/04 11:01:09;;;;;;;15.45;9.20;;;;;;;;;;5100803;28;20043;-78
2022/02/04 11:03:39;;;;;;;15.85;7.22;;;;;;;;;;5107794;28;20443;-78
2022/02/04 11:08:57;;;;;;;16.95;8.40;;;;;;;;;;5097137;28;20042;-80
2022/02/04 11:35:55;;;;;;;18.38;9.73;;;;;;;;;;5105630;28;20058;-78
2022/02/04 11:52:30;;;;;;;20.25;9.90;;;;;;;;;;5107532;28;20122;-78
2022/02/04 11:55:11;;;;;;;16.50;10.13;;;;;;;;;;5109978;28;20404;-78
2022/02/04 11:57:39;;;;;;;14.25;8.85;;;;;;;;;;5086005;28;20028;-78
2022/02/04 12:00:20;;;;;;;15.60;9.63;;;;;;;;;;5093536;28;20790;-78
2022/02/04 12:02:53;;;;;;;16.80;8.73;;;;;;;;;;5102990;28;20040;-78
2022/02/04 12:05:19;;;;;;;16.10;9.07;;;;;;;;;;5077727;28;20062;-78
2022/02/04 12:07:48;;;;;;;14.85;9.35;;;;;;;;;;5091986;28;20759;-78
2022/02/04 12:10:14;;;;;;;14.90;8.10;;;;;;;;;;5104562;27;20063;-78
2022/02/04 12:12:53;;;;;;;12.50;8.27;;;;;;;;;;5073588;28;20032;-78
2022/02/04 12:15:31;;;;;;;15.23;9.20;;;;;;;;;;5094548;28;20477;-77
2022/02/04 12:18:00;;;;;;;16.83;9.85;;;;;;;;;;5091909;28;20028;-78
2022/02/04 12:20:50;;;;;;;18.98;9.05;;;;;;;;;;5102103;28;20606;-78
2022/02/04 12:23:46;;;;;;;17.20;9.45;;;;;;;;;;5077750;28;20119;-78
2022/02/04 12:26:16;;;;;;;14.05;7.68;;;;;;;;;;5101782;28;20032;-78
2022/02/04 12:28:49;;;;;;;12.43;7.93;;;;;;;;;;5089862;28;20081;-78
2022/02/04 12:31:17;;;;;;;13.55;7.78;;;;;;;;;;5106399;28;20035;-78
2022/02/04 12:33:44;;;;;;;12.00;7.80;;;;;;;;;;5101085;28;20039;-78
2022/02/04 12:36:27;;;;;;;17.73;8.57;;;;;;;;;;5074638;28;20043;-80
2022/02/04 12:38:57;;;;;;;14.82;8.23;;;;;;;;;;5097386;28;20055;-78
2022/02/04 12:41:25;;;;;;;17.67;9.85;;;;;;;;;;5095380;28;20046;-77
2022/02/04 12:43:52;;;;;;;19.15;10.48;;;;;;;;;;5071245;28;20032;-78
2022/02/04 12:46:19;;;;;;;15.98;10.77;;;;;;;;;;5093236;28;20039;-79
2022/02/04 12:48:57;;;;;;;14.65;9.65;;;;;;;;;;5101443;28;20044;-78
2022/02/04 12:51:32;;;;;;;15.80;10.32;;;;;;;;;;5093547;28;20081;-78
2022/02/04 12:53:58;;;;;;;15.85;9.27;;;;;;;;;;5104442;28;20035;-78
2022/02/04 12:56:38;;;;;;;12.32;8.77;;;;;;;;;;5100009;28;20097;-78
2022/02/04 13:09:58;;;;;;;14.20;9.25;;;;;;;;;;5107046;28;20046;-80
2022/02/04 13:12:24;;;;;;;14.73;9.27;;;;;;;;;;5097753;28;20032;-78
2022/02/04 13:14:51;;;;;;;14.75;9.65;;;;;;;;;;5095862;28;20047;-78
2022/02/04 13:17:33;;;;;;;23.23;11.80;;;;;;;;;;5088838;28;20024;-80
2022/02/04 13:19:59;;;;;;;;;;;;;;;;;;5091481;28;20763;-78
2022/02/04 13:22:25;;;;;;;15.77;10.48;;;;;;;;;;5096512;28;19989;-78
2022/02/04 13:25:05;;;;;;;18.80;12.18;;;;;;;;;;5105472;28;20060;-78
2022/02/04 13:27:31;;;;;;;17.40;11.45;;;;;;;;;;5104128;28;20469;-80
2022/02/04 13:29:57;;;;;;;16.05;10.02;;;;;;;;;;5097121;28;20036;-80
2022/02/04 13:32:23;;;;;;;16.40;9.45;;;;;;;;;;5088851;28;20032;-78
2022/02/04 13:34:50;;;;;;;15.15;9.35;;;;;;;;;;5070700;28;20046;-78
2022/02/04 13:37:28;;;;;;;14.50;10.10;;;;;;;;;;5088837;28;20128;-78
2022/02/04 13:40:03;;;;;;;17.83;10.52;;;;;;;;;;5090811;28;20077;-78
2022/02/04 13:42:39;;;;;;;16.08;9.50;;;;;;;;;;5088789;28;20020;-78
2022/02/04 13:45:24;;;;;;;15.98;10.20;;;;;;;;;;5089059;28;20373;-78
2022/02/04 13:48:03;;;;;;;16.80;9.75;;;;;;;;;;5085452;28;20058;-78
2022/02/04 13:53:10;;;;;;;14.73;8.32;;;;;;;;;;5103646;28;20087;-80
2022/02/04 14:01:05;;;;;;;13.98;7.05;;;;;;;;;;5099425;28;20109;-80
2022/02/04 14:03:35;;;;;;;13.75;7.38;;;;;;;;;;5107732;28;20028;-80
2022/02/04 14:06:08;;;;;;;11.60;7.07;;;;;;;;;;5093343;28;20701;-80
2022/02/04 14:09:02;;;;;;;14.10;6.53;;;;;;;;;;5104133;28;20748;-80
2022/02/04 14:11:37;;;;;;;10.85;6.15;;;;;;;;;;5107447;28;20147;-78
2022/02/04 14:14:05;;;;;;;13.27;5.88;;;;;;;;;;5111224;28;20027;-78
2022/02/04 14:16:31;;;;;;;16.40;6.05;;;;;;;;;;5104451;28;20039;-80
2022/02/04 14:18:57;;;;;;;15.70;6.35;;;;;;;;;;5100678;28;20027;-80
2022/02/04 14:21:23;;;;;;;12.80;5.30;;;;;;;;;;5112957;28;20031;-80
2022/02/04 14:23:57;;;;;;;9.82;4.68;;;;;;;;;;5112573;28;20024;-78
2022/02/04 14:26:26;;;;;;;10.95;5.50;;;;;;;;;;5098578;28;20048;-78
2022/02/04 14:50:07;;;;;;;10.73;4.47;;;;;;;;;;5098343;28;20051;-80
2022/02/04 14:52:43;;;;;;;9.70;4.85;;;;;;;;;;5098869;28;20035;-80
2022/02/04 15:03:42;;;;;;;9.18;5.40;;;;;;;;;;5096471;28;20478;-80
2022/02/04 15:05:49;;;;;;;8.50;4.80;;;;;;;;;;5098871;28;20453;-79
2022/02/04 15:08:18;;;;;;;9.52;5.75;;;;;;;;;;5108189;28;20030;-80
2022/02/04 15:10:47;;;;;;;9.35;4.88;;;;;;;;;;5091982;28;20123;-80
2022/02/04 15:13:15;;;;;;;10.38;5.40;;;;;;;;;;5100709;28;20406;-80
2022/02/04 15:15:42;;;;;;;10.73;5.22;;;;;;;;;;5104732;28;20566;-79
2022/02/04 15:18:08;;;;;;;13.60;5.43;;;;;;;;;;5097725;28;20016;-80
2022/02/04 15:20:34;;;;;;;11.55;5.63;;;;;;;;;;5094781;28;21826;-80
2022/02/04 15:23:01;;;;;;;10.30;5.28;;;;;;;;;;5091382;28;20553;-80
2022/02/04 15:25:27;;;;;;;12.00;6.10;;;;;;;;;;5107631;28;20031;-80
2022/02/04 15:28:10;;;;;;;11.27;6.10;;;;;;;;;;5092642;28;20024;-80
2022/02/04 15:30:40;;;;;;;11.38;6.07;;;;;;;;;;5098255;28;20032;-80
2022/02/04 15:33:07;;;;;;;10.02;5.93;;;;;;;;;;5106185;28;20027;-80
2022/02/04 15:35:33;;;;;;;13.32;6.43;;;;;;;;;;5100649;28;20047;-80
2022/02/04 15:37:59;;;;;;;11.60;6.38;;;;;;;;;;5088643;28;20023;-80
2022/02/04 15:40:25;;;;;;;12.88;6.28;;;;;;;;;;5106974;28;20036;-79
2022/02/04 15:42:57;;;;;;;11.05;6.43;;;;;;;;;;5095183;28;20469;-80
2022/02/04 15:50:42;;;;;;;11.93;6.40;;;;;;;;;;5098130;28;20046;-80
2022/02/04 15:53:23;;;;;;;10.80;4.75;;;;;;;;;;5108835;28;20051;-80
2022/02/04 16:01:11;;;;;;;11.43;6.00;;;;;;;;;;5095088;28;20081;-80
2022/02/04 16:06:09;;;;;;;16.25;7.05;;;;;;;;;;5103031;28;20050;-80
2022/02/04 16:08:35;;;;;;;11.57;7.07;;;;;;;;;;5097964;28;20028;-80
2022/02/04 16:11:15;;;;;;;9.93;6.57;;;;;;;;;;5108399;28;20044;-80
2022/02/04 16:14:30;;;;;;;13.88;7.25;;;;;;;;;;5079153;28;20785;-80
2022/02/04 16:16:36;;;;;;;14.25;8.98;;;;;;;;;;5089390;28;20047;-81
2022/02/04 16:22:08;;;;;;;12.82;8.20;;;;;;;;;;5091428;28;20043;-80
2022/02/04 16:29:38;;;;;;;15.60;11.18;;;;;;;;;;5095692;28;20031;-80
2022/02/04 16:32:05;;;;;;;12.63;7.00;;;;;;;;;;5090160;28;20115;-80
2022/02/04 16:34:31;;;;;;;11.60;5.97;;;;;;;;;;5106332;28;20489;-80
2022/02/04 16:37:02;;;;;;;10.18;6.18;;;;;;;;;;5093544;28;20032;-80
2022/02/04 16:39:29;;;;;;;14.70;6.35;;;;;;;;;;5092500;28;20069;-80
2022/02/04 16:42:04;;;;;;;13.07;6.25;;;;;;;;;;5104058;28;20024;-80
2022/02/04 16:44:31;;;;;;;10.15;5.82;;;;;;;;;;5109718;28;20020;-80
2022/02/04 16:47:00;;;;;;;11.85;6.97;;;;;;;;;;5110203;28;20055;-80
2022/02/04 16:49:26;;;;;;;12.00;6.15;;;;;;;;;;5099325;28;20384;-80
2022/02/04 16:51:52;;;;;;;17.27;7.78;;;;;;;;;;5090113;28;20035;-80
2022/02/04 16:54:19;;;;;;;30.13;15.73;;;;;;;;;;5072903;28;20031;-80
2022/02/04 16:56:45;;;;;;;36.22;21.90;;;;;;;;;;5103714;28;20085;-80
2022/02/04 16:59:11;;;;;;;30.02;16.95;;;;;;;;;;5101554;28;20027;-80
2022/02/04 17:01:37;;;;;;;27.45;17.05;;;;;;;;;;5078419;28;20052;-81
2022/02/04 17:04:05;;;;;;;31.08;19.95;;;;;;;;;;5089534;28;20089;-80
2022/02/04 17:06:39;;;;;;;75.80;37.72;;;;;;;;;;5092617;28;20441;-80
2022/02/04 17:11:43;;;;;;;65.40;31.77;;;;;;;;;;5094577;28;20086;-80
2022/02/04 17:14:09;;;;;;;50.97;25.42;;;;;;;;;;5109619;28;20026;-80
2022/02/04 17:16:39;;;;;;;46.90;22.70;;;;;;;;;;5090707;28;20122;-80
2022/02/04 17:19:05;;;;;;;46.53;24.00;;;;;;;;;;5074047;28;20027;-80
2022/02/04 17:21:34;;;;;;;36.95;21.17;;;;;;;;;;5098612;28;20036;-80
2022/02/04 17:24:00;;;;;;;30.92;17.80;;;;;;;;;;5095599;28;20020;-79
2022/02/04 17:26:26;;;;;;;62.88;28.38;;;;;;;;;;5096271;28;20035;-79
2022/02/04 17:28:54;;;;;;;50.42;23.63;;;;;;;;;;5103612;28;20381;-79
2022/02/04 17:31:20;;;;;;;29.00;13.77;;;;;;;;;;5099779;28;20379;-79
2022/02/04 17:33:46;;;;;;;17.73;9.60;;;;;;;;;;5101710;28;20032;-79
2022/02/04 17:36:12;;;;;;;17.58;8.00;;;;;;;;;;5080086;28;20389;-79
2022/02/04 17:38:39;;;;;;;18.83;8.63;;;;;;;;;;5100759;28;20576;-80
2022/02/04 17:41:08;;;;;;;32.08;18.75;;;;;;;;;;5100753;28;20039;-80
2022/02/04 17:43:34;;;;;;;35.85;22.10;;;;;;;;;;5102756;28;20020;-80
2022/02/04 17:46:00;;;;;;;38.78;24.23;;;;;;;;;;5095704;28;20043;-80
2022/02/04 17:49:10;;;;;;;32.13;18.90;;;;;;;;;;5112586;28;20023;-80
2022/02/04 17:51:31;;;;;;;35.33;24.77;;;;;;;;;;5097679;28;20043;-80
2022/02/04 17:54:00;;;;;;;36.17;25.40;;;;;;;;;;5096760;28;20042;-79
2022/02/04 17:56:35;;;;;;;28.75;18.50;;;;;;;;;;5101286;28;20139;-80
2022/02/04 17:59:17;;;;;;;29.40;19.95;;;;;;;;;;5085508;28;20020;-80
2022/02/04 18:02:27;;;;;;;38.20;23.60;;;;;;;;;;5104693;28;20042;-79
2022/02/04 18:07:24;;;;;;;57.58;32.03;;;;;;;;;;5103297;28;20078;-78
2022/02/04 18:09:51;;;;;;;60.17;35.03;;;;;;;;;;5082994;28;20040;-80
2022/02/04 18:12:21;;;;;;;62.72;35.88;;;;;;;;;;5105772;28;20033;-78
2022/02/04 18:14:48;;;;;;;49.80;29.50;;;;;;;;;;5100419;28;20421;-80
2022/02/04 18:17:14;;;;;;;48.42;28.88;;;;;;;;;;5104134;28;20070;-80
2022/02/04 18:19:41;;;;;;;36.25;23.33;;;;;;;;;;5101136;28;20098;-79
2022/02/04 18:22:07;;;;;;;28.83;19.63;;;;;;;;;;5108349;28;20028;-79
2022/02/04 18:24:33;;;;;;;25.65;17.67;;;;;;;;;;5080314;28;20118;-78
2022/02/04 18:26:59;;;;;;;30.73;18.65;;;;;;;;;;5086574;28;20039;-78
2022/02/04 18:29:25;;;;;;;27.58;18.13;;;;;;;;;;5093601;28;20032;-78
2022/02/04 18:31:53;;;;;;;27.45;15.25;;;;;;;;;;5107005;28;20126;-79
2022/02/04 18:34:19;;;;;;;25.33;14.20;;;;;;;;;;5104264;28;20082;-79
2022/02/04 18:36:46;;;;;;;20.75;13.70;;;;;;;;;;5105782;28;20560;-79
2022/02/04 18:44:28;;;;;;;28.60;18.27;;;;;;;;;;5098587;28;22147;-78
2022/02/04 18:57:14;;;;;;;25.55;15.68;;;;;;;;;;5097312;28;20048;-78
2022/02/04 18:59:54;;;;;;;27.90;17.73;;;;;;;;;;5101495;28;20016;-78
2022/02/04 19:02:21;;;;;;;33.97;18.65;;;;;;;;;;5099265;28;20647;-77
2022/02/04 19:05:12;;;;;;;39.83;18.42;;;;;;;;;;5099907;28;20829;-77
2022/02/04 19:07:42;;;;;;;35.38;18.38;;;;;;;;;;5111102;28;20032;-78
2022/02/04 19:10:09;;;;;;;38.85;19.00;;;;;;;;;;5100379;28;20028;-79
2022/02/04 19:12:55;;;;;;;40.00;18.05;;;;;;;;;;5106797;28;20038;-78
2022/02/04 19:17:52;;;;;;;57.08;29.13;;;;;;;;;;5100165;28;20033;-78
2022/02/04 19:20:41;;;;;;;74.40;37.63;;;;;;;;;;5104318;28;20028;-78
2022/02/04 19:23:11;;;;;;;44.08;22.88;;;;;;;;;;5105820;28;20025;-78
2022/02/04 19:25:39;;;;;;;38.50;18.50;;;;;;;;;;5103935;28;20035;-78
2022/02/04 19:28:08;;;;;;;28.70;14.98;;;;;;;;;;5111708;28;20023;-78
2022/02/04 19:30:41;;;;;;;22.95;11.70;;;;;;;;;;5098383;28;20036;-78
2022/02/04 19:33:07;;;;;;;31.35;16.65;;;;;;;;;;5091336;28;20032;-78
2022/02/04 19:35:33;;;;;;;29.13;14.60;;;;;;;;;;5074160;28;20039;-77
2022/02/04 19:37:59;;;;;;;26.00;15.50;;;;;;;;;;5093794;28;20055;-78
2022/02/04 19:40:25;;;;;;;24.50;13.45;;;;;;;;;;5097754;28;20040;-78
2022/02/04 19:42:51;;;;;;;32.15;17.85;;;;;;;;;;5094210;28;20019;-78
2022/02/04 19:45:26;;;;;;;42.50;23.00;;;;;;;;;;5088290;28;20036;-78
2022/02/04 19:47:58;;;;;;;47.03;23.80;;;;;;;;;;5099051;28;20039;-78
2022/02/04 19:50:40;;;;;;;31.70;17.42;;;;;;;;;;5104078;28;20449;-78
2022/02/04 20:25:30;;;;;;;54.70;33.83;;;;;;;;;;5096428;28;20043;-79
2022/02/04 20:28:04;;;;;;;59.08;34.35;;;;;;;;;;5075583;28;20038;-79
2022/02/04 20:30:30;;;;;;;81.93;48.10;;;;;;;;;;5100304;28;20385;-79
2022/02/04 20:32:56;;;;;;;62.33;38.47;;;;;;;;;;5107763;28;20023;-79
2022/02/04 20:35:22;;;;;;;54.15;30.83;;;;;;;;;;5092371;28;20032;-79
2022/02/04 20:37:50;;;;;;;43.88;27.00;;;;;;;;;;5096549;28;20035;-80
2022/02/04 20:40:25;;;;;;;54.70;34.80;;;;;;;;;;5089915;28;20028;-78
2022/02/04 20:42:51;;;;;;;73.13;50.22;;;;;;;;;;5075477;28;20106;-80
2022/02/04 20:45:17;;;;;;;50.25;34.63;;;;;;;;;;5085134;28;20048;-80
2022/02/04 20:47:45;;;;;;;68.50;48.90;;;;;;;;;;5082327;28;20028;-80
2022/02/04 20:50:12;;;;;;;71.70;51.00;;;;;;;;;;5074569;28;20372;-79
2022/02/04 20:52:38;;;;;;;57.80;41.38;;;;;;;;;;5082745;28;20027;-79
2022/02/04 20:55:08;;;;;;;44.03;30.13;;;;;;;;;;5078569;28;20067;-80
2022/02/04 20:57:41;;;;;;;39.40;25.63;;;;;;;;;;5089937;28;20451;-79
2022/02/04 21:00:09;;;;;;;57.88;36.33;;;;;;;;;;5072148;28;20040;-80
2022/02/04 21:02:36;;;;;;;41.70;24.90;;;;;;;;;;5079587;28;20059;-80
2022/02/04 21:05:02;;;;;;;35.83;25.92;;;;;;;;;;5109043;28;20032;-79
2022/02/04 21:08:00;;;;;;;37.50;24.15;;;;;;;;;;5094916;28;20547;-79
2022/02/04 21:15:45;;;;;;;24.20;15.77;;;;;;;;;;5103399;28;20051;-79
2022/02/04 21:18:12;;;;;;;28.02;17.15;;;;;;;;;;5093917;28;20024;-79
2022/02/04 21:20:39;;;;;;;34.97;22.13;;;;;;;;;;5096587;28;20097;-79
2022/02/04 21:23:10;;;;;;;31.48;18.70;;;;;;;;;;5109092;28;20042;-79
2022/02/04 21:25:36;;;;;;;30.77;19.92;;;;;;;;;;5100596;28;20123;-79
2022/02/04 21:28:06;;;;;;;30.80;20.00;;;;;;;;;;5095884;28;20024;-79
2022/02/04 21:30:33;;;;;;;28.45;19.13;;;;;;;;;;5105718;28;20111;-79
2022/02/04 21:33:01;;;;;;;26.20;17.38;;;;;;;;;;5110034;28;20031;-79
2022/02/04 21:38:13;;;;;;;33.42;21.48;;;;;;;;;;5105613;28;20844;-79
2022/02/04 21:40:39;;;;;;;23.48;15.35;;;;;;;;;;5102689;28;20366;-78
2022/02/04 21:43:06;;;;;;;25.63;15.90;;;;;;;;;;5103724;28;20121;-79
2022/02/04 21:45:35;;;;;;;28.83;17.15;;;;;;;;;;5082019;28;20461;-78
2022/02/04 21:48:04;;;;;;;28.73;17.33;;;;;;;;;;5103049;28;20016;-78
2022/02/04 21:50:32;;;;;;;35.92;21.48;;;;;;;;;;5101771;28;20043;-79
2022/02/04 21:52:58;;;;;;;27.75;18.27;;;;;;;;;;5101058;28;20030;-79
2022/02/04 21:55:24;;;;;;;33.00;18.90;;;;;;;;;;5083165;28;20792;-79
2022/02/04 21:57:50;;;;;;;30.45;18.33;;;;;;;;;;5101134;28;20045;-79
2022/02/04 22:00:17;;;;;;;35.72;18.75;;;;;;;;;;5102007;28;20031;-79
2022/02/04 22:02:43;;;;;;;46.05;22.70;;;;;;;;;;5100622;28;20106;-79